createdAt,value
2022-10-05T04:00:31.297Z,998.72
2022-10-05T04:05:31.217Z,998.63
2022-10-05T04:10:31.235Z,998.50
2022-10-05T04:15:31.271Z,998.50
2022-10-05T04:20:38.289Z,998.59
2022-10-05T04:25:31.005Z,998.57
2022-10-05T04:30:30.951Z,998.56
2022-10-05T04:35:30.897Z,998.56
2022-10-05T04:40:30.918Z,998.58
2022-10-05T04:45:30.790Z,998.59
2022-10-05T04:50:30.738Z,998.54
2022-10-05T04:55:30.704Z,998.63
2022-10-05T05:00:30.695Z,998.55
2022-10-05T05:05:30.577Z,998.58
2022-10-05T05:10:30.522Z,998.62
2022-10-05T05:15:30.468Z,998.64
2022-10-05T05:20:30.430Z,998.64
2022-10-05T05:25:30.359Z,998.63
2022-10-05T05:30:30.306Z,998.63
2022-10-05T05:35:30.251Z,998.73
2022-10-05T05:40:30.211Z,998.63
2022-10-05T05:45:30.148Z,998.53
2022-10-05T05:50:30.074Z,998.60
2022-10-05T05:55:30.647Z,998.63
2022-10-05T06:00:29.990Z,998.56
2022-10-05T06:05:29.930Z,998.64
2022-10-05T06:10:29.874Z,998.65
2022-10-05T06:15:29.818Z,998.79
2022-10-05T06:20:29.793Z,998.79
2022-10-05T06:25:29.709Z,998.75
2022-10-05T06:30:29.660Z,998.74
2022-10-05T06:35:29.598Z,998.71
2022-10-05T06:40:29.570Z,998.79
2022-10-05T06:45:29.522Z,998.79
2022-10-05T06:50:29.436Z,998.73
2022-10-05T06:55:29.379Z,998.69
2022-10-05T07:00:29.349Z,998.71
2022-10-05T07:05:29.273Z,998.71
2022-10-05T07:10:29.214Z,998.76
2022-10-05T07:15:29.329Z,998.72
2022-10-05T07:20:29.120Z,998.66
2022-10-05T07:25:29.043Z,998.72
2022-10-05T07:30:29.103Z,998.74
2022-10-05T07:35:28.930Z,998.78
2022-10-05T07:40:28.899Z,998.76
2022-10-05T07:45:28.913Z,998.83
2022-10-05T07:50:28.759Z,998.85
2022-10-05T07:55:28.716Z,998.82
2022-10-05T08:00:28.702Z,998.80
2022-10-05T08:05:28.595Z,998.89
2022-10-05T08:10:28.684Z,998.85
2022-10-05T08:15:28.505Z,998.90
2022-10-05T08:20:28.512Z,998.90
2022-10-05T08:25:28.388Z,998.92
2022-10-05T08:30:28.345Z,998.98
2022-10-05T08:35:28.271Z,998.87
2022-10-05T08:40:28.258Z,998.83
2022-10-05T08:45:28.173Z,998.76
2022-10-05T08:50:28.118Z,998.79
2022-10-05T08:55:28.060Z,998.73
2022-10-05T09:00:28.143Z,998.73
2022-10-05T09:05:27.949Z,998.75
2022-10-05T09:10:27.897Z,998.73
2022-10-05T09:15:27.841Z,998.63
2022-10-05T09:20:27.819Z,998.64
2022-10-05T09:25:27.741Z,998.68
2022-10-05T09:30:27.678Z,998.61
2022-10-05T09:35:27.631Z,998.59
2022-10-05T09:40:27.608Z,998.51
2022-10-05T09:45:27.546Z,998.43
2022-10-05T09:50:27.465Z,998.43
2022-10-05T09:55:27.447Z,998.47
2022-10-05T10:00:27.384Z,998.43
2022-10-05T10:05:27.330Z,998.42
2022-10-05T10:10:27.249Z,998.47
2022-10-05T10:15:27.193Z,998.32
2022-10-05T10:20:34.259Z,998.34
2022-10-05T10:25:27.082Z,998.36
2022-10-05T10:30:27.730Z,998.45
2022-10-05T10:35:27.035Z,998.44
2022-10-05T10:40:27.028Z,998.33
2022-10-05T10:45:26.870Z,998.20
2022-10-05T10:50:26.822Z,998.16
2022-10-05T10:55:26.765Z,998.16
2022-10-05T11:00:26.731Z,998.14
2022-10-05T11:05:26.655Z,998.10
2022-10-05T11:10:26.604Z,997.88
2022-10-05T11:15:26.568Z,997.91
2022-10-05T11:20:26.510Z,997.77
2022-10-05T11:25:26.439Z,997.73
2022-10-05T11:30:26.371Z,997.59
2022-10-05T11:35:26.338Z,997.58
2022-10-05T11:40:26.321Z,997.45
2022-10-05T11:45:26.217Z,997.30
2022-10-05T11:50:26.163Z,997.11
2022-10-05T11:55:26.105Z,997.16
2022-10-05T12:00:26.164Z,996.96
2022-10-05T12:05:25.998Z,996.93
2022-10-05T12:10:25.987Z,996.92
2022-10-05T12:15:25.887Z,996.68
2022-10-05T12:20:25.858Z,996.55
2022-10-05T12:25:25.775Z,996.50
2022-10-05T12:30:25.933Z,996.50
2022-10-05T12:35:43.971Z,996.31
2022-10-05T12:40:26.640Z,996.27
2022-10-05T12:45:25.613Z,996.10
2022-10-05T12:50:25.499Z,996.07
2022-10-05T12:55:25.453Z,996.00
2022-10-05T13:00:25.396Z,996.03
2022-10-05T13:05:25.334Z,996.02
2022-10-05T13:10:25.290Z,996.00
2022-10-05T13:15:25.227Z,996.01
2022-10-05T13:20:25.193Z,995.81
2022-10-05T13:25:25.129Z,995.73
2022-10-05T13:30:25.067Z,995.67
2022-10-05T13:35:25.010Z,995.50
2022-10-05T13:40:25.000Z,995.62
2022-10-05T13:45:25.037Z,995.51
2022-10-05T13:50:26.596Z,995.50
2022-10-05T13:55:24.799Z,995.53
2022-10-05T14:00:26.982Z,995.44
2022-10-05T14:05:24.696Z,995.38
2022-10-05T14:10:24.625Z,995.32
2022-10-05T14:15:24.581Z,995.36
2022-10-05T14:20:24.551Z,995.34
2022-10-05T14:25:24.477Z,995.31
2022-10-05T14:30:24.428Z,995.32
2022-10-05T14:35:24.367Z,995.38
2022-10-05T14:40:24.350Z,995.34
2022-10-05T14:45:24.306Z,995.31
2022-10-05T14:50:24.207Z,995.38
2022-10-05T14:55:24.143Z,995.32
2022-10-05T15:00:24.113Z,995.49
2022-10-05T15:05:24.037Z,995.48
2022-10-05T15:10:23.983Z,995.43
2022-10-05T15:15:23.941Z,995.68
2022-10-05T15:20:23.891Z,995.60
2022-10-05T15:25:23.820Z,995.64
2022-10-05T15:30:23.762Z,995.71
2022-10-05T15:35:23.709Z,995.67
2022-10-05T15:40:23.675Z,995.69
2022-10-05T15:45:23.600Z,995.76
2022-10-05T15:50:23.565Z,995.82
2022-10-05T15:55:23.498Z,995.98
2022-10-05T16:00:23.612Z,996.00
2022-10-05T16:05:23.409Z,996.08
2022-10-05T16:10:23.390Z,996.19
2022-10-05T16:15:23.280Z,996.25
2022-10-05T16:20:23.325Z,996.27
2022-10-05T16:25:23.190Z,996.39
2022-10-05T16:30:23.135Z,996.51
2022-10-05T16:35:23.071Z,996.62
2022-10-05T16:40:23.058Z,996.69
2022-10-05T16:45:22.970Z,996.75
2022-10-05T16:50:22.915Z,996.89
2022-10-05T16:55:22.861Z,996.83
2022-10-05T17:00:22.833Z,997.02
2022-10-05T17:05:22.760Z,996.99
2022-10-05T17:10:22.709Z,997.14
2022-10-05T17:15:22.716Z,997.31
2022-10-05T17:20:22.618Z,997.52
2022-10-05T17:25:22.544Z,997.50
2022-10-05T17:30:22.494Z,997.78
2022-10-05T17:35:22.431Z,997.92
2022-10-05T17:40:27.720Z,997.98
2022-10-05T17:45:23.324Z,998.03
2022-10-05T17:50:22.266Z,998.20
2022-10-05T17:55:22.215Z,998.30
2022-10-05T18:00:22.178Z,998.41
2022-10-05T18:05:22.107Z,998.46
2022-10-05T18:10:22.051Z,998.63
2022-10-05T18:15:21.998Z,998.59
2022-10-05T18:20:22.047Z,998.72
2022-10-05T18:25:21.895Z,998.70
2022-10-05T18:30:21.840Z,998.54
2022-10-05T18:35:21.780Z,998.51
2022-10-05T18:40:21.803Z,998.55
2022-10-05T18:45:21.672Z,998.65
2022-10-05T18:50:21.616Z,998.63
2022-10-05T18:55:21.573Z,998.71
2022-10-05T19:00:21.529Z,998.75
2022-10-05T19:05:46.363Z,998.61
2022-10-05T19:10:22.401Z,998.65
2022-10-05T19:15:21.471Z,998.69
2022-10-05T19:20:21.337Z,998.69
2022-10-05T19:25:21.240Z,998.79
2022-10-05T19:30:21.196Z,998.88
2022-10-05T19:35:21.129Z,998.85
2022-10-05T19:40:21.106Z,998.86
2022-10-05T19:45:21.020Z,998.90
2022-10-05T19:50:20.964Z,998.93
2022-10-05T19:55:20.908Z,999.03
2022-10-05T20:00:20.888Z,999.06
2022-10-05T20:05:20.803Z,999.03
2022-10-05T20:10:20.740Z,999.08
2022-10-05T20:15:20.719Z,999.10
2022-10-05T20:20:20.655Z,999.08
2022-10-05T20:25:20.579Z,999.10
2022-10-05T20:30:20.528Z,999.14
2022-10-05T20:35:20.484Z,999.14
2022-10-05T20:40:20.524Z,999.36
2022-10-05T20:45:20.363Z,999.48
2022-10-05T20:50:20.310Z,999.47
2022-10-05T20:55:20.257Z,999.57
2022-10-05T21:00:20.243Z,999.53
2022-10-05T21:05:20.273Z,999.60
2022-10-05T21:10:20.086Z,999.67
2022-10-05T21:15:20.034Z,999.75
2022-10-05T21:20:19.997Z,999.76
2022-10-05T21:25:19.929Z,999.81
2022-10-05T21:30:19.874Z,999.86
2022-10-05T21:35:19.817Z,999.93
2022-10-05T21:40:19.821Z,999.87
2022-10-05T21:45:19.716Z,999.86
2022-10-05T21:50:19.655Z,999.89
2022-10-05T21:55:19.594Z,999.89
2022-10-05T22:00:19.560Z,999.94
2022-10-05T22:05:19.512Z,1000.05
2022-10-05T22:10:19.434Z,1000.19
2022-10-05T22:15:19.381Z,1000.87
2022-10-05T22:20:26.429Z,1001.29
2022-10-05T22:25:19.275Z,1001.35
2022-10-05T22:30:19.214Z,1001.55
2022-10-05T22:35:19.154Z,1001.61
2022-10-05T22:40:19.141Z,1001.53
2022-10-05T22:45:19.099Z,1001.56
2022-10-05T22:50:19.034Z,1001.76
2022-10-05T22:55:18.971Z,1001.83
2022-10-05T23:00:19.404Z,1001.83
2022-10-05T23:05:18.851Z,1001.95
2022-10-05T23:10:18.962Z,1002.05
2022-10-05T23:15:18.741Z,1002.05
2022-10-05T23:20:18.695Z,1002.04
2022-10-05T23:25:18.700Z,1002.19
